Time;durP1;ratioP1;P1;durP2;ratioP2;P2;SDS_P1;SDS_P2;PMS_P1;PMS_P2;Temp;Humidity;BMP_temperature;BMP_pressure;BME280_temperature;BME280_humidity;BME280_pressure;Samples;Min_cycle;Max_cycle;Signal;HPM_P1;HPM_P2
2023/04/01 00:03:00;;;;;;;5.80;1.50;;;10.70;99.90;;;;;;10422650;28;20219;-74
2023/04/01 00:08:01;;;;;;;6.87;1.33;;;10.60;99.90;;;;;;10390995;28;20209;-73
2023/04/01 00:13:01;;;;;;;5.07;1.60;;;10.80;99.90;;;;;;10392442;28;20221;-74
2023/04/01 00:18:09;;;;;;;3.77;1.23;;;10.70;99.90;;;;;;10422690;28;20568;-73
2023/04/01 00:23:09;;;;;;;7.23;1.73;;;10.70;99.90;;;;;;10396110;28;20303;-73
2023/04/01 00:28:10;;;;;;;4.63;1.40;;;10.70;99.90;;;;;;10423188;28;20332;-73
2023/04/01 00:33:10;;;;;;;2.93;1.13;;;10.60;99.90;;;;;;10419820;28;20237;-73
2023/04/01 00:38:12;;;;;;;4.70;1.13;;;10.70;99.90;;;;;;10395915;28;20220;-73
2023/04/01 00:43:20;;;;;;;4.03;1.37;;;10.70;99.90;;;;;;10389087;28;20613;-72
2023/04/01 00:48:25;;;;;;;5.30;1.20;;;10.70;99.90;;;;;;10414351;28;20221;-73
2023/04/01 00:53:26;;;;;;;5.53;1.30;;;10.70;99.90;;;;;;10386400;28;20224;-72
2023/04/01 00:58:30;;;;;;;4.23;1.20;;;10.70;99.90;;;;;;10396183;28;20282;-73
2023/04/01 01:03:31;;;;;;;3.27;1.10;;;10.70;99.90;;;;;;10387954;28;20217;-70
2023/04/01 01:08:32;;;;;;;4.30;1.37;;;10.70;99.90;;;;;;10419568;28;20217;-70
2023/04/01 01:13:50;;;;;;;8.40;1.50;;;10.70;99.90;;;;;;10412605;28;20220;-71
2023/04/01 01:19:19;;;;;;;5.13;1.20;;;10.70;99.90;;;;;;10422852;28;20238;-71
2023/04/01 01:24:25;;;;;;;4.67;1.40;;;10.80;99.90;;;;;;10385642;28;20583;-70
2023/04/01 01:30:12;;;;;;;5.43;1.23;;;10.80;99.90;;;;;;10379761;28;20221;-70
2023/04/01 01:35:31;;;;;;;4.53;1.07;;;10.80;99.90;;;;;;10386609;28;20216;-69
2023/04/01 01:40:34;;;;;;;3.47;1.20;;;10.80;99.90;;;;;;10379591;28;20233;-71
2023/04/01 01:45:38;;;;;;;7.50;1.60;;;10.80;99.90;;;;;;10391706;28;20231;-70
2023/04/01 01:50:41;;;;;;;4.47;1.20;;;10.80;99.90;;;;;;10387121;28;20828;-69
2023/04/01 01:55:45;;;;;;;3.20;1.07;;;10.80;99.90;;;;;;10418678;28;20233;-70
2023/04/01 02:00:50;;;;;;;6.10;1.60;;;10.80;99.90;;;;;;10388344;28;20283;-70
2023/04/01 02:05:55;;;;;;;4.43;1.40;;;10.80;99.90;;;;;;10385866;28;20224;-70
2023/04/01 02:11:04;;;;;;;6.27;1.80;;;10.80;99.90;;;;;;10388380;28;20225;-70
2023/04/01 02:16:12;;;;;;;4.20;1.20;;;10.80;99.90;;;;;;10385111;28;20248;-70
2023/04/01 02:21:13;;;;;;;6.33;1.70;;;10.80;99.90;;;;;;10386147;28;20299;-70
2023/04/01 02:26:14;;;;;;;3.97;1.40;;;10.80;99.90;;;;;;10423128;28;20719;-70
2023/04/01 02:31:16;;;;;;;5.60;1.30;;;10.80;99.90;;;;;;10419378;28;20308;-70
2023/04/01 02:36:17;;;;;;;4.60;1.30;;;10.80;99.90;;;;;;10384603;28;20220;-69
2023/04/01 02:41:18;;;;;;;5.53;1.40;;;10.70;99.90;;;;;;10379184;28;20229;-70
2023/04/01 02:46:18;;;;;;;5.03;1.40;;;10.60;99.90;;;;;;10423236;28;20225;-70
2023/04/01 02:51:19;;;;;;;4.10;1.17;;;10.50;99.90;;;;;;10382558;28;20812;-69
2023/04/01 02:56:21;;;;;;;4.47;1.60;;;10.50;99.90;;;;;;10386320;28;20221;-70
2023/04/01 03:01:22;;;;;;;3.80;1.40;;;10.50;99.90;;;;;;10386359;28;20274;-71
2023/04/01 03:06:23;;;;;;;3.50;1.00;;;10.50;99.90;;;;;;10392162;28;20220;-71
2023/04/01 03:11:23;;;;;;;5.93;1.50;;;10.50;99.90;;;;;;10421576;28;20225;-71
2023/04/01 03:16:24;;;;;;;5.57;1.20;;;10.40;99.90;;;;;;10383129;28;20225;-70
2023/04/01 03:21:25;;;;;;;3.17;1.30;;;10.40;99.90;;;;;;10383673;28;20233;-69
2023/04/01 03:26:27;;;;;;;3.03;1.17;;;10.40;99.90;;;;;;10406126;28;20614;-69
2023/04/01 03:31:27;;;;;;;6.50;1.50;;;10.40;99.90;;;;;;10414747;28;20255;-70
2023/04/01 03:36:28;;;;;;;5.43;1.63;;;10.40;99.90;;;;;;10390853;28;20751;-70
2023/04/01 03:41:28;;;;;;;3.93;1.30;;;10.40;99.90;;;;;;10390516;28;20232;-70
2023/04/01 03:46:29;;;;;;;4.93;1.20;;;10.40;99.90;;;;;;10382867;28;20225;-70
2023/04/01 03:51:29;;;;;;;4.83;1.30;;;10.40;99.90;;;;;;10414361;28;20596;-70
2023/04/01 03:56:30;;;;;;;3.10;1.00;;;10.30;99.90;;;;;;10407954;28;20595;-69
2023/04/01 04:01:31;;;;;;;4.30;1.30;;;10.40;99.90;;;;;;10388864;28;20315;-71
2023/04/01 04:06:32;;;;;;;3.47;1.20;;;10.40;99.90;;;;;;10383163;28;20228;-70
2023/04/01 04:11:33;;;;;;;5.70;1.33;;;10.40;99.90;;;;;;10384277;28;20229;-70
2023/04/01 04:16:36;;;;;;;4.37;1.10;;;10.40;99.90;;;;;;10387902;28;20732;-71
2023/04/01 04:21:36;;;;;;;2.67;1.00;;;10.40;99.90;;;;;;10378489;28;20228;-70
2023/04/01 04:26:37;;;;;;;3.43;1.10;;;10.40;99.90;;;;;;10379645;28;20215;-70
2023/04/01 04:31:38;;;;;;;3.60;1.10;;;10.40;99.90;;;;;;10386926;28;20895;-69
2023/04/01 04:36:38;;;;;;;2.70;1.30;;;10.40;99.90;;;;;;10421215;28;20247;-70
2023/04/01 04:41:40;;;;;;;3.90;0.77;;;10.50;99.90;;;;;;10387581;28;20212;-71
2023/04/01 04:46:41;;;;;;;3.50;0.93;;;10.50;99.90;;;;;;10395185;28;20318;-71
2023/04/01 04:51:41;;;;;;;3.33;1.00;;;10.50;99.90;;;;;;10387278;28;20301;-70
2023/04/01 04:56:42;;;;;;;3.83;1.33;;;10.50;99.90;;;;;;10389453;28;20232;-69
2023/04/01 05:01:42;;;;;;;3.17;0.97;;;10.60;99.90;;;;;;10425652;28;20231;-71
2023/04/01 05:06:44;;;;;;;2.87;1.03;;;10.60;99.90;;;;;;10390659;28;20279;-70
2023/04/01 05:11:45;;;;;;;2.03;0.90;;;10.60;99.90;;;;;;10388742;28;20275;-70
2023/04/01 05:16:46;;;;;;;6.43;1.00;;;10.60;99.90;;;;;;10422513;28;20235;-70
2023/04/01 05:21:46;;;;;;;3.40;1.10;;;10.60;99.90;;;;;;10424836;28;20217;-71
2023/04/01 05:26:47;;;;;;;3.23;0.90;;;10.60;99.90;;;;;;10389798;28;20236;-70
2023/04/01 05:31:47;;;;;;;4.87;1.00;;;10.60;99.90;;;;;;10391815;28;20209;-70
2023/04/01 05:36:48;;;;;;;3.70;1.10;;;10.60;99.90;;;;;;10389712;28;20212;-71
2023/04/01 05:41:52;;;;;;;3.07;1.10;;;10.60;99.90;;;;;;10391505;28;20672;-71
2023/04/01 05:46:52;;;;;;;1.73;0.70;;;10.60;99.90;;;;;;10415551;28;20731;-71
2023/04/01 05:51:56;;;;;;;3.13;0.90;;;10.60;99.90;;;;;;10391090;28;20300;-70
2023/04/01 05:56:57;;;;;;;2.57;0.73;;;10.60;99.90;;;;;;10385476;28;20273;-70
2023/04/01 06:01:57;;;;;;;3.23;0.90;;;10.60;99.90;;;;;;10389243;28;20241;-70
2023/04/01 06:06:58;;;;;;;2.23;0.70;;;10.70;99.90;;;;;;10391069;28;20235;-70
2023/04/01 06:12:17;;;;;;;1.53;0.67;;;10.70;99.90;;;;;;10390353;28;20216;-69
2023/04/01 06:17:57;;;;;;;2.20;0.80;;;10.70;99.90;;;;;;10385665;28;20244;-70
2023/04/01 06:23:29;;;;;;;3.03;0.70;;;10.80;99.90;;;;;;10388256;28;20406;-71
2023/04/01 06:29:01;;;;;;;1.43;0.70;;;10.80;99.90;;;;;;10379287;28;20940;-71
2023/04/01 06:34:10;;;;;;;1.77;0.63;;;10.80;99.90;;;;;;10421631;28;20224;-69
2023/04/01 06:39:35;;;;;;;1.57;0.70;;;10.90;99.90;;;;;;10379340;28;20237;-70
2023/04/01 06:44:39;;;;;;;3.83;0.97;;;10.90;99.90;;;;;;10381416;28;20600;-69
2023/04/01 06:49:40;;;;;;;2.13;0.70;;;11.00;99.90;;;;;;10415302;28;20235;-69
2023/04/01 06:54:55;;;;;;;2.53;0.80;;;11.00;99.90;;;;;;10416080;28;20219;-70
2023/04/01 06:59:58;;;;;;;3.50;0.80;;;11.00;99.90;;;;;;10379550;28;20312;-70
2023/04/01 07:05:00;;;;;;;3.33;0.73;;;11.00;99.90;;;;;;10385154;28;20217;-69
2023/04/01 07:10:09;;;;;;;2.80;0.67;;;10.90;99.90;;;;;;10383190;28;20724;-70
2023/04/01 07:15:15;;;;;;;1.80;0.90;;;10.90;99.90;;;;;;10388655;28;20776;-69
2023/04/01 07:20:20;;;;;;;1.83;0.90;;;11.00;99.90;;;;;;10384025;28;20221;-70
2023/04/01 07:25:44;;;;;;;1.70;0.53;;;11.10;99.90;;;;;;10391268;28;20299;-70
2023/04/01 07:30:56;;;;;;;2.57;0.47;;;11.20;99.90;;;;;;10379623;28;20220;-70
2023/04/01 07:36:08;;;;;;;2.70;0.70;;;11.40;99.90;;;;;;10418595;28;20312;-70
2023/04/01 07:41:30;;;;;;;1.10;0.47;;;11.50;99.90;;;;;;10382322;28;20245;-70
2023/04/01 07:46:55;;;;;;;1.67;1.23;;;11.70;99.90;;;;;;10383378;28;20228;-71
2023/04/01 07:52:02;;;;;;;3.60;0.60;;;11.90;99.90;;;;;;10384385;28;20275;-70
2023/04/01 07:57:09;;;;;;;2.43;0.57;;;12.00;99.90;;;;;;10413807;28;20689;-70
2023/04/01 08:02:22;;;;;;;1.27;0.50;;;12.10;99.90;;;;;;10386025;28;20217;-70
2023/04/01 08:07:36;;;;;;;0.50;0.50;;;12.00;99.90;;;;;;10390429;28;20228;-70
2023/04/01 08:12:57;;;;;;;1.43;0.50;;;12.10;99.90;;;;;;10385309;28;20236;-70
2023/04/01 08:18:04;;;;;;;1.00;0.50;;;12.10;99.90;;;;;;10397786;28;20267;-71
2023/04/01 08:23:13;;;;;;;1.13;0.50;;;12.10;99.90;;;;;;10389498;28;20253;-70
2023/04/01 08:28:17;;;;;;;2.43;0.70;;;12.10;99.90;;;;;;10386817;28;20221;-70
2023/04/01 08:33:34;;;;;;;0.77;0.30;;;12.00;99.90;;;;;;10389327;28;20239;-71
2023/04/01 08:39:14;;;;;;;1.07;0.40;;;11.90;99.90;;;;;;10376255;28;20220;-70
2023/04/01 08:44:28;;;;;;;1.40;0.50;;;11.80;99.90;;;;;;10390077;28;20221;-69
2023/04/01 08:49:50;;;;;;;0.93;0.43;;;11.80;99.90;;;;;;10413036;28;20239;-70
2023/04/01 08:55:15;;;;;;;4.17;0.50;;;11.70;99.90;;;;;;10383003;28;20204;-70
2023/04/01 09:00:32;;;;;;;0.67;0.60;;;11.60;99.90;;;;;;10392131;28;20232;-71
2023/04/01 09:05:54;;;;;;;1.40;0.53;;;11.60;99.90;;;;;;10413144;28;20597;-70
2023/04/01 09:11:04;;;;;;;2.07;0.77;;;11.80;99.90;;;;;;10416586;28;20917;-69
2023/04/01 09:16:20;;;;;;;0.60;0.53;;;11.80;99.90;;;;;;10393712;28;20228;-69
2023/04/01 09:21:32;;;;;;;1.57;0.40;;;11.90;99.90;;;;;;10389409;28;20236;-71
2023/04/01 09:27:14;;;;;;;1.03;0.50;;;11.90;99.90;;;;;;10411524;28;20224;-70
2023/04/01 09:32:20;;;;;;;1.80;0.40;;;11.90;99.90;;;;;;10381303;28;20675;-71
2023/04/01 09:38:08;;;;;;;1.00;0.33;;;12.00;99.90;;;;;;10393426;28;20585;-70
2023/04/01 09:43:43;;;;;;;0.57;0.40;;;11.90;99.90;;;;;;10422564;28;20275;-69
2023/04/01 09:49:21;;;;;;;2.13;0.43;;;12.00;99.90;;;;;;10416619;28;20316;-70
2023/04/01 09:54:47;;;;;;;2.20;0.50;;;12.00;99.90;;;;;;10390359;28;20209;-71
2023/04/01 10:00:09;;;;;;;2.50;0.57;;;12.00;99.90;;;;;;10372661;28;20256;-69
2023/04/01 10:05:45;;;;;;;0.83;0.33;;;12.00;99.90;;;;;;10389166;28;20679;-69
2023/04/01 10:10:57;;;;;;;0.60;0.40;;;11.90;99.90;;;;;;10414012;28;20266;-70
2023/04/01 10:16:13;;;;;;;0.20;0.20;;;11.80;99.90;;;;;;10411458;28;20766;-70
2023/04/01 10:21:14;;;;;;;1.83;0.30;;;11.80;99.90;;;;;;10391309;28;20319;-70
2023/04/01 10:26:49;;;;;;;0.73;0.40;;;11.90;99.90;;;;;;10408809;28;20216;-70
2023/04/01 10:32:20;;;;;;;1.00;0.70;;;12.00;99.90;;;;;;10370600;28;20299;-70
2023/04/01 10:37:37;;;;;;;1.67;0.50;;;12.30;99.90;;;;;;10410775;28;20319;-69
2023/04/01 10:42:44;;;;;;;0.70;0.50;;;12.40;99.90;;;;;;10409741;28;20213;-70
2023/04/01 10:48:14;;;;;;;0.57;0.27;;;12.50;99.90;;;;;;10387474;28;20221;-69
2023/04/01 10:53:42;;;;;;;0.30;0.30;;;12.60;99.90;;;;;;10383301;28;20677;-70
2023/04/01 10:59:14;;;;;;;0.73;0.50;;;12.70;99.90;;;;;;10413565;28;20267;-70
2023/04/01 11:04:45;;;;;;;1.30;0.43;;;12.80;99.90;;;;;;10385166;28;20712;-70
2023/04/01 11:10:07;;;;;;;0.87;0.30;;;12.80;99.90;;;;;;10413070;28;20217;-70
2023/04/01 11:15:29;;;;;;;1.27;0.60;;;12.80;99.90;;;;;;10373303;28;20224;-70
2023/04/01 11:21:13;;;;;;;0.63;0.50;;;12.90;99.90;;;;;;10381250;28;20275;-71
2023/04/01 11:26:37;;;;;;;0.33;0.30;;;12.90;99.90;;;;;;10384158;28;20221;-70
2023/04/01 11:31:45;;;;;;;0.60;0.40;;;12.90;99.90;;;;;;10383996;28;20239;-68
2023/04/01 11:37:04;;;;;;;0.93;0.80;;;13.10;99.90;;;;;;10383845;28;20237;-70
2023/04/01 11:42:36;;;;;;;1.17;0.60;;;13.20;99.90;;;;;;10380808;28;20721;-69
2023/04/01 11:47:49;;;;;;;0.27;0.27;;;13.30;99.90;;;;;;10372090;28;20213;-70
2023/04/01 11:53:07;;;;;;;1.13;0.43;;;13.30;99.90;;;;;;10388399;28;20583;-68
2023/04/01 11:58:33;;;;;;;0.80;0.40;;;13.10;99.90;;;;;;10396282;28;20228;-69
2023/04/01 12:04:15;;;;;;;0.43;0.40;;;12.90;99.90;;;;;;10380248;28;20220;-70
2023/04/01 12:09:40;;;;;;;0.70;0.27;;;12.60;99.90;;;;;;10396728;28;20208;-69
2023/04/01 12:15:13;;;;;;;0.63;0.40;;;12.60;99.90;;;;;;10388575;28;20736;-69
2023/04/01 12:20:35;;;;;;;0.43;0.30;;;12.90;99.90;;;;;;10389617;28;20783;-69
2023/04/01 12:25:42;;;;;;;0.67;0.40;;;13.00;99.90;;;;;;10384410;28;20217;-69
2023/04/01 12:30:58;;;;;;;0.30;0.30;;;13.00;99.90;;;;;;10417466;28;20231;-69
2023/04/01 12:36:14;;;;;;;0.73;0.30;;;13.20;99.90;;;;;;10375074;28;20220;-69
2023/04/01 12:41:42;;;;;;;0.50;0.30;;;13.50;99.90;;;;;;10376130;28;20225;-69
2023/04/01 12:46:46;;;;;;;0.73;0.20;;;13.70;99.90;;;;;;10366554;28;20296;-70
2023/04/01 12:51:52;;;;;;;2.60;0.60;;;13.90;99.90;;;;;;10379870;28;20232;-69
2023/04/01 12:57:29;;;;;;;0.50;0.30;;;14.00;99.90;;;;;;10385713;28;20221;-69
2023/04/01 13:03:07;;;;;;;0.40;0.20;;;13.80;99.90;;;;;;10387982;28;20221;-70
2023/04/01 13:08:16;;;;;;;0.60;0.40;;;13.50;99.90;;;;;;10384794;28;20218;-69
2023/04/01 13:13:55;;;;;;;2.23;0.40;;;13.30;99.90;;;;;;10381090;28;20763;-68
2023/04/01 13:19:07;;;;;;;1.07;0.40;;;13.10;99.90;;;;;;10381001;28;20634;-70
2023/04/01 13:24:28;;;;;;;0.47;0.40;;;13.00;99.90;;;;;;10389629;28;20228;-69
2023/04/01 13:29:42;;;;;;;0.90;0.40;;;12.90;99.90;;;;;;10377635;28;20219;-69
2023/04/01 13:35:18;;;;;;;1.20;0.30;;;12.90;99.90;;;;;;10386785;28;20687;-69
2023/04/01 13:40:40;;;;;;;1.63;0.40;;;12.90;99.90;;;;;;10388157;28;20221;-68
2023/04/01 13:46:01;;;;;;;0.40;0.40;;;13.00;99.90;;;;;;10386711;28;20217;-69
2023/04/01 13:51:36;;;;;;;1.07;0.40;;;13.20;99.90;;;;;;10385098;28;20216;-69
2023/04/01 13:56:45;;;;;;;0.50;0.30;;;13.50;99.90;;;;;;10412968;28;20221;-69
2023/04/01 14:01:58;;;;;;;1.57;0.43;;;14.00;99.90;;;;;;10410254;28;20229;-69
2023/04/01 14:07:25;;;;;;;0.87;0.30;;;14.20;99.90;;;;;;10373499;28;20217;-71
2023/04/01 14:12:40;;;;;;;0.73;0.20;;;14.40;99.90;;;;;;10370494;28;20213;-69
2023/04/01 14:17:56;;;;;;;0.20;0.20;;;14.60;99.90;;;;;;10401946;28;20247;-72
2023/04/01 14:23:20;;;;;;;0.50;0.30;;;14.50;99.90;;;;;;10410694;28;20216;-70
2023/04/01 14:28:45;;;;;;;0.80;0.30;;;14.20;99.90;;;;;;10417671;28;20218;-70
2023/04/01 14:34:18;;;;;;;1.47;0.30;;;14.10;99.90;;;;;;10379950;28;20843;-69
2023/04/01 14:39:26;;;;;;;0.30;0.30;;;14.10;99.90;;;;;;10380027;28;20221;-69
2023/04/01 14:44:38;;;;;;;2.10;0.40;;;14.00;99.90;;;;;;10379774;28;20217;-69
2023/04/01 14:49:46;;;;;;;0.83;0.20;;;13.90;99.90;;;;;;10377603;28;20210;-69
2023/04/01 14:54:49;;;;;;;2.67;0.40;;;13.70;99.90;;;;;;10388983;28;20767;-70
2023/04/01 14:59:59;;;;;;;0.73;0.40;;;13.50;99.90;;;;;;10389244;28;20231;-71
2023/04/01 15:05:21;;;;;;;1.07;0.40;;;13.30;99.90;;;;;;10392624;28;20231;-67
2023/04/01 15:10:56;;;;;;;1.23;0.50;;;13.40;99.90;;;;;;10389250;28;20274;-69
2023/04/01 15:16:02;;;;;;;1.73;0.73;;;13.40;99.90;;;;;;10383434;28;20722;-64
2023/04/01 15:21:21;;;;;;;0.83;0.50;;;13.30;99.90;;;;;;10382679;28;20282;-69
2023/04/01 15:26:38;;;;;;;1.47;0.50;;;13.20;99.90;;;;;;10388967;28;20277;-69
2023/04/01 15:32:00;;;;;;;0.50;0.50;;;13.10;99.90;;;;;;10377527;28;20220;-68
2023/04/01 15:37:35;;;;;;;0.43;0.27;;;13.10;99.90;;;;;;10382203;28;20948;-68
2023/04/01 15:42:53;;;;;;;1.03;0.40;;;13.10;99.90;;;;;;10377772;28;20213;-68
2023/04/01 15:48:26;;;;;;;1.43;0.33;;;13.00;99.90;;;;;;10386882;28;20560;-68
2023/04/01 15:53:27;;;;;;;0.40;0.40;;;13.00;99.90;;;;;;10387124;28;20270;-69
2023/04/01 15:58:52;;;;;;;0.60;0.50;;;12.90;99.90;;;;;;10382398;28;20221;-70
2023/04/01 16:04:17;;;;;;;1.27;0.33;;;12.90;99.90;;;;;;10390708;28;20347;-68
2023/04/01 16:09:33;;;;;;;1.17;0.40;;;12.90;99.90;;;;;;10382889;28;20676;-68
2023/04/01 16:14:42;;;;;;;0.80;0.30;;;12.80;99.90;;;;;;10379059;28;20671;-69
2023/04/01 16:19:59;;;;;;;0.60;0.40;;;12.90;99.90;;;;;;10388151;28;20324;-68
2023/04/01 16:25:30;;;;;;;0.50;0.43;;;12.90;99.90;;;;;;10382053;28;20252;-69
2023/04/01 16:30:45;;;;;;;1.07;0.43;;;12.80;99.90;;;;;;10370487;28;20216;-69
2023/04/01 16:36:07;;;;;;;0.47;0.40;;;12.70;99.90;;;;;;10388578;28;20241;-68
2023/04/01 16:41:34;;;;;;;1.20;0.40;;;12.50;99.90;;;;;;10391412;28;20221;-68
2023/04/01 16:46:41;;;;;;;1.33;0.67;;;12.40;99.90;;;;;;10383667;28;20576;-67
2023/04/01 16:51:48;;;;;;;0.37;0.37;;;12.50;99.90;;;;;;10390580;28;20224;-68
2023/04/01 16:56:54;;;;;;;1.30;0.60;;;12.50;99.90;;;;;;10389787;28;20220;-68
2023/04/01 17:02:04;;;;;;;0.57;0.40;;;12.30;99.90;;;;;;10419538;28;20249;-68
2023/04/01 17:07:29;;;;;;;1.90;0.37;;;12.30;99.90;;;;;;10394087;28;20217;-69
2023/04/01 17:12:48;;;;;;;0.80;0.40;;;12.20;99.90;;;;;;10366977;28;20859;-73
2023/04/01 17:18:01;;;;;;;1.60;0.50;;;12.20;99.90;;;;;;10400771;28;20895;-69
2023/04/01 17:23:25;;;;;;;1.63;0.40;;;12.20;99.90;;;;;;10391217;28;20290;-69
2023/04/01 17:28:40;;;;;;;0.80;0.50;;;12.20;99.90;;;;;;10385258;28;20624;-69
2023/04/01 17:34:03;;;;;;;1.77;0.70;;;12.10;99.90;;;;;;10380132;28;20225;-68
2023/04/01 17:39:41;;;;;;;0.90;0.67;;;12.10;99.90;;;;;;10386839;28;20576;-69
2023/04/01 17:45:00;;;;;;;0.50;0.50;;;12.00;99.90;;;;;;10412538;28;20216;-69
2023/04/01 17:50:35;;;;;;;1.03;0.63;;;12.00;99.90;;;;;;10383152;28;20292;-69
2023/04/01 17:55:39;;;;;;;1.17;0.50;;;12.00;99.90;;;;;;10374357;28;20259;-68
2023/04/01 18:00:55;;;;;;;1.70;0.60;;;12.00;99.90;;;;;;10423570;28;20311;-68
2023/04/01 18:06:17;;;;;;;0.50;0.50;;;11.90;99.90;;;;;;10418838;28;20219;-69
2023/04/01 18:11:38;;;;;;;0.30;0.30;;;11.90;99.90;;;;;;10386194;28;20220;-68
2023/04/01 18:17:11;;;;;;;0.53;0.53;;;11.80;99.90;;;;;;10411269;28;20694;-68
2023/04/01 18:22:25;;;;;;;1.73;1.30;;;11.80;99.90;;;;;;10385739;28;20231;-68
2023/04/01 18:27:38;;;;;;;1.70;1.60;;;11.70;99.90;;;;;;10384335;28;20245;-69
2023/04/01 18:33:01;;;;;;;0.83;0.67;;;11.70;99.90;;;;;;10381151;28;20289;-69
2023/04/01 18:38:41;;;;;;;0.90;0.67;;;11.70;99.90;;;;;;10387581;28;20824;-69
2023/04/01 18:44:03;;;;;;;0.77;0.73;;;11.60;99.90;;;;;;10358663;28;20312;-70
2023/04/01 18:49:51;;;;;;;3.77;0.60;;;11.60;99.90;;;;;;10383589;28;20227;-68
2023/04/01 18:55:04;;;;;;;0.90;0.60;;;11.50;99.90;;;;;;10377576;28;20247;-70
2023/04/01 19:00:18;;;;;;;0.87;0.60;;;11.40;99.90;;;;;;10416531;28;20233;-69
2023/04/01 19:05:26;;;;;;;0.70;0.60;;;11.40;99.90;;;;;;10390814;28;20188;-69
2023/04/01 19:10:47;;;;;;;1.40;0.60;;;11.30;99.90;;;;;;10386457;28;20349;-68
2023/04/01 19:16:04;;;;;;;1.67;0.60;;;11.20;99.90;;;;;;10382183;28;20298;-69
2023/04/01 19:21:21;;;;;;;2.37;0.70;;;11.20;99.90;;;;;;10418608;28;20228;-69
2023/04/01 19:26:36;;;;;;;1.43;0.50;;;11.20;99.90;;;;;;10387927;28;20220;-70
2023/04/01 19:31:49;;;;;;;1.23;0.50;;;11.20;99.90;;;;;;10383506;28;20227;-68
2023/04/01 19:37:02;;;;;;;0.93;0.57;;;11.10;99.90;;;;;;10386305;28;20312;-70
2023/04/01 19:42:37;;;;;;;2.03;0.50;;;11.10;99.90;;;;;;10380714;28;20225;-71
2023/04/01 19:47:41;;;;;;;1.17;0.57;;;11.00;99.90;;;;;;10371558;28;20217;-67
2023/04/01 19:52:43;;;;;;;1.30;0.70;;;11.00;99.90;;;;;;10381930;28;20216;-68
2023/04/01 19:57:57;;;;;;;3.40;0.90;;;11.00;99.90;;;;;;10414981;28;20319;-67
2023/04/01 20:03:03;;;;;;;1.27;0.67;;;11.00;99.90;;;;;;10386835;28;20217;-67
2023/04/01 20:08:30;;;;;;;4.13;0.80;;;11.00;99.90;;;;;;10389031;28;20213;-66
2023/04/01 20:14:01;;;;;;;1.17;0.70;;;11.00;99.90;;;;;;10388704;28;20217;-68
2023/04/01 20:19:02;;;;;;;1.40;0.70;;;11.00;99.90;;;;;;10393519;28;20233;-66
2023/04/01 20:24:26;;;;;;;1.87;1.37;;;11.00;99.90;;;;;;10377657;28;20572;-67
2023/04/01 20:29:27;;;;;;;1.07;0.57;;;11.00;99.90;;;;;;10391734;28;20221;-66
2023/04/01 20:34:34;;;;;;;1.63;0.70;;;11.00;99.90;;;;;;10391158;28;20689;-66
2023/04/01 20:39:58;;;;;;;1.97;0.70;;;10.90;99.90;;;;;;10373954;28;20702;-66
2023/04/01 20:45:24;;;;;;;1.47;0.70;;;10.90;99.90;;;;;;10388237;28;20218;-68
2023/04/01 20:50:32;;;;;;;1.23;0.67;;;10.90;99.90;;;;;;10394294;28;20254;-68
2023/04/01 20:56:08;;;;;;;1.50;0.70;;;10.90;99.90;;;;;;10391435;28;20287;-67
2023/04/01 21:01:11;;;;;;;2.67;0.77;;;10.90;99.90;;;;;;10388938;28;20299;-66
2023/04/01 21:06:38;;;;;;;0.80;0.50;;;10.90;99.90;;;;;;10388356;28;20223;-63
2023/04/01 21:12:11;;;;;;;1.67;0.77;;;10.90;99.90;;;;;;10386949;28;20271;-67
2023/04/01 21:17:30;;;;;;;0.80;0.70;;;10.90;99.90;;;;;;10419459;28;20956;-63
2023/04/01 21:22:59;;;;;;;1.10;0.80;;;10.90;99.90;;;;;;10405089;28;20603;-67
2023/04/01 21:28:03;;;;;;;3.07;0.90;;;10.90;99.90;;;;;;10385761;28;20229;-65
2023/04/01 21:33:18;;;;;;;4.23;1.07;;;10.90;99.90;;;;;;10394842;28;20228;-66
2023/04/01 21:38:31;;;;;;;2.30;0.70;;;10.90;99.90;;;;;;10418763;28;20707;-65
2023/04/01 21:43:40;;;;;;;1.17;0.73;;;10.90;99.90;;;;;;10379860;28;20218;-65
2023/04/01 21:48:50;;;;;;;2.03;0.80;;;10.80;99.90;;;;;;10386637;28;20243;-64
2023/04/01 21:54:30;;;;;;;1.10;0.80;;;10.90;99.90;;;;;;10391179;28;20221;-66
2023/04/01 22:00:01;;;;;;;0.83;0.67;;;10.80;99.90;;;;;;10379095;28;20589;-67
2023/04/01 22:05:18;;;;;;;1.33;0.80;;;10.80;99.90;;;;;;10419189;28;20275;-65
2023/04/01 22:10:31;;;;;;;1.00;0.50;;;10.80;99.90;;;;;;10418773;28;20248;-65
2023/04/01 22:15:49;;;;;;;1.27;0.90;;;10.80;99.90;;;;;;10383835;28;20225;-63
2023/04/01 22:21:13;;;;;;;1.03;1.00;;;10.80;99.90;;;;;;10384735;28;20237;-66
2023/04/01 22:26:32;;;;;;;1.87;0.90;;;10.80;99.90;;;;;;10387915;28;20229;-66
2023/04/01 22:31:44;;;;;;;0.93;0.90;;;10.80;99.90;;;;;;10376457;28;20958;-66
2023/04/01 22:36:52;;;;;;;1.03;0.80;;;10.80;99.90;;;;;;10422787;28;20352;-66
2023/04/01 22:42:28;;;;;;;1.27;0.90;;;10.80;99.90;;;;;;10388220;28;20237;-67
2023/04/01 22:48:01;;;;;;;1.87;1.00;;;10.80;99.90;;;;;;10378373;28;20209;-66
2023/04/01 22:53:26;;;;;;;1.60;1.00;;;10.80;99.90;;;;;;10389928;28;20642;-64
2023/04/01 22:58:38;;;;;;;3.10;1.07;;;10.80;99.90;;;;;;10383375;28;20291;-65
2023/04/01 23:03:41;;;;;;;2.00;1.20;;;10.80;99.90;;;;;;10383471;28;20223;-65
2023/04/01 23:08:45;;;;;;;1.20;1.10;;;10.80;99.90;;;;;;10384484;28;20275;-65
2023/04/01 23:13:52;;;;;;;1.87;1.10;;;10.80;99.90;;;;;;10390063;28;20236;-65
2023/04/01 23:19:11;;;;;;;2.73;1.80;;;10.70;99.90;;;;;;10386642;28;20228;-65
2023/04/01 23:24:20;;;;;;;3.27;1.63;;;10.70;99.90;;;;;;10385242;28;20217;-64
2023/04/01 23:29:22;;;;;;;1.53;1.33;;;10.60;99.90;;;;;;10389977;28;20223;-66
2023/04/01 23:34:36;;;;;;;3.70;1.80;;;10.60;99.90;;;;;;10383834;28;20692;-65
2023/04/01 23:39:48;;;;;;;2.87;2.57;;;10.60;99.90;;;;;;10377226;28;20759;-65
2023/04/01 23:44:51;;;;;;;3.30;2.47;;;10.50;99.90;;;;;;10420657;28;20573;-64
2023/04/01 23:50:00;;;;;;;2.87;2.57;;;10.40;99.90;;;;;;10383871;28;20270;-63
2023/04/01 23:55:12;;;;;;;3.53;2.20;;;10.30;99.90;;;;;;10385372;28;20248;-63
